Home   Weather   Germany   Hoyerswerda   Past weeks
Flag for Germany

Past Weather in Hoyerswerda, Saxony, Germany — Yesterday and Last 2 Weeks

Currently: 59 °F. Sunny. (Weather station: Dresden-Klotzsche, Germany). See more current weather

Past Weather in Hoyerswerda — Graph

°F

Hoyerswerda Temperature Yesterday

Maximum temperature yesterday: 81 °F (at 3:50 pm)
Minimum temperature yesterday: 55 °F (at 5:50 am)
Average temperature yesterday: 71 °F

High & Low Weather Summary for the Past Weeks

 TemperatureHumidityPressure
High95 °F (Aug 4, 2:20 pm)94% (Jul 30, 4:20 am)30.33 "Hg (Jul 30, 4:20 am)
Low52 °F (Aug 7, 5:50 am)23% (Aug 3, 5:50 pm)29.89 "Hg (Aug 5, 3:20 am)
Average72 °F50%30.11 "Hg
* Reported Jul 29 6:20 am — Aug 13 6:20 am, Hoyerswerda. Weather by CustomWeather, © 2022

Note: Actual official high and low records may vary slightly from our data, if they occured in-between our weather recording intervals... More about our weather records

Hoyerswerda Weather History for the Previous 24 Hours

Scroll right to see more
 ConditionsComfort  
Time TempWeatherWind HumidityBarometerVisibility
6:20 am
Sat, Aug 13
57 °FSunny.1 mph77%30.07 "Hg10 mi
5:50 am59 °FSunny.1 mph72%30.07 "Hg10 mi
5:20 am61 °FClear.1 mph68%30.07 "Hg10 mi
4:50 am61 °FClear.2 mph68%30.07 "Hg10 mi
4:20 am61 °FClear.2 mph68%30.09 "Hg10 mi
3:50 am63 °FClear.1 mph64%30.07 "Hg10 mi
3:20 am63 °FClear.1 mph64%30.07 "Hg10 mi
2:50 am61 °FClear.1 mph68%30.09 "Hg10 mi
1:20 am68 °FClear.3 mph53%30.09 "Hg10 mi
12:50 am64 °FClear.2 mph56%30.09 "Hg10 mi
12:20 am64 °FClear.2 mph56%30.09 "Hg10 mi
11:50 pm
Fri, Aug 12
66 °FClear.2 mph52%30.09 "Hg10 mi
11:20 pm68 °FClear.3 mph49%30.09 "Hg10 mi
10:50 pm72 °FClear.6 mph44%30.09 "Hg10 mi
10:20 pm72 °FClear.3 mph44%30.09 "Hg10 mi
9:50 pm73 °FClear.3 mph41%30.09 "Hg10 mi
9:20 pm73 °FClear.5 mph41%30.09 "Hg10 mi
8:50 pm75 °FClear.5 mph39%30.09 "Hg10 mi
8:20 pm77 °FSunny.7 mph36%30.09 "Hg10 mi
7:50 pm79 °FPassing clouds.9 mph32%30.09 "HgN/A
7:20 pm79 °FSunny.12 mph34%30.09 "Hg10 mi
6:50 pm81 °FSunny.12 mph32%30.09 "Hg10 mi
6:20 pm81 °FPassing clouds.13 mph30%30.09 "HgN/A
5:50 pm81 °FPassing clouds.14 mph30%30.09 "HgN/A
5:20 pm81 °FPassing clouds.16 mph30%30.09 "HgN/A
4:50 pm81 °FSunny.14 mph32%30.09 "Hg10 mi
4:20 pm81 °FPassing clouds.14 mph32%30.12 "HgN/A
3:50 pm81 °FPassing clouds.13 mph32%30.12 "HgN/A
3:20 pm79 °FPassing clouds.12 mph34%30.12 "HgN/A
2:50 pm79 °FPassing clouds.13 mph34%30.12 "HgN/A
2:20 pm77 °FPassing clouds.15 mph36%30.15 "HgN/A
1:50 pm79 °FSunny.14 mph34%30.15 "Hg10 mi
1:20 pm77 °FPassing clouds.13 mph39%30.15 "HgN/A
12:50 pm77 °FPassing clouds.16 mph36%30.15 "HgN/A
12:20 pm77 °FPassing clouds.14 mph39%30.18 "HgN/A
11:50 am75 °FPassing clouds.12 mph41%30.18 "HgN/A
11:20 am75 °FPassing clouds.13 mph41%30.18 "HgN/A
10:50 am75 °FPassing clouds.13 mph41%30.18 "HgN/A
10:20 am72 °FPassing clouds.10 mph47%30.18 "HgN/A
9:50 am70 °FPassing clouds.7 mph50%30.18 "HgN/A
9:20 am68 °FPassing clouds.5 mph49%30.18 "HgN/A
8:50 am68 °FPassing clouds.6 mph49%30.18 "HgN/A
8:20 am68 °FSunny.2 mph46%30.18 "Hg10 mi
7:50 am63 °FSunny.2 mph56%30.18 "Hg10 mi
7:20 am61 °FSunny.5 mph59%30.18 "Hg10 mi
Weather by CustomWeather, © 2022

See weather overview